Time;durP1;ratioP1;P1;durP2;ratioP2;P2;SDS_P1;SDS_P2;PMS_P1;PMS_P2;Temp;Humidity;BMP_temperature;BMP_pressure;BME280_temperature;BME280_humidity;BME280_pressure;Samples;Min_cycle;Max_cycle;Signal;HPM_P1;HPM_P2
2021/11/07 00:04:29;;;;;;;8.75;4.20;;;10.00;93.80;;;;;;5054695;28;20394;-75
2021/11/07 00:12:15;;;;;;;7.75;3.83;;;10.00;93.80;;;;;;5051220;28;20029;-75
2021/11/07 00:14:46;;;;;;;9.48;3.90;;;10.00;93.90;;;;;;5050064;28;20090;-75
2021/11/07 00:17:12;;;;;;;6.57;3.70;;;10.00;93.90;;;;;;5052335;28;20026;-74
2021/11/07 00:19:47;;;;;;;10.73;4.43;;;10.00;93.90;;;;;;5053561;28;20447;-74
2021/11/07 00:35:47;;;;;;;12.52;4.90;;;10.00;94.50;;;;;;5053955;28;20022;-75
2021/11/07 00:37:57;;;;;;;8.10;4.47;;;10.00;94.60;;;;;;5052386;28;20037;-74
2021/11/07 00:42:58;;;;;;;9.73;4.93;;;9.90;94.70;;;;;;5053328;28;20029;-74
2021/11/07 00:48:10;;;;;;;10.35;5.00;;;9.90;94.80;;;;;;5051789;28;20470;-74
2021/11/07 00:53:33;;;;;;;11.13;5.50;;;9.90;95.10;;;;;;5051959;28;20400;-74
2021/11/07 01:01:37;;;;;;;10.13;6.05;;;9.80;95.30;;;;;;5046005;28;20052;-74
2021/11/07 01:04:04;;;;;;;8.88;5.82;;;9.80;95.40;;;;;;5051527;28;20028;-75
2021/11/07 01:06:31;;;;;;;12.15;6.50;;;9.80;95.50;;;;;;5036952;28;20041;-74
2021/11/07 01:08:57;;;;;;;10.20;5.80;;;9.80;95.60;;;;;;5050934;28;20192;-74
2021/11/07 01:11:23;;;;;;;16.02;6.53;;;9.80;95.60;;;;;;5030150;28;20064;-74
2021/11/07 01:13:49;;;;;;;11.35;6.43;;;9.80;95.70;;;;;;5038264;28;20021;-74
2021/11/07 01:16:16;;;;;;;12.15;6.20;;;9.80;95.80;;;;;;5051375;28;20021;-74
2021/11/07 01:18:42;;;;;;;9.93;6.18;;;9.70;95.90;;;;;;5052945;28;20393;-75
2021/11/07 01:21:11;;;;;;;10.77;6.70;;;9.80;96.10;;;;;;5053219;28;20033;-74
2021/11/07 01:23:42;;;;;;;13.07;6.35;;;9.70;96.10;;;;;;5051855;28;20188;-74
2021/11/07 01:26:16;;;;;;;8.45;5.60;;;9.80;96.20;;;;;;5052835;28;20052;-75
2021/11/07 01:28:51;;;;;;;7.63;6.05;;;9.70;96.20;;;;;;5051298;28;20060;-74
2021/11/07 01:31:17;;;;;;;14.75;5.90;;;9.70;96.30;;;;;;5051203;28;20041;-74
2021/11/07 01:33:43;;;;;;;7.78;6.10;;;9.70;96.40;;;;;;5051236;28;20044;-75
2021/11/07 01:38:50;;;;;;;9.48;6.20;;;9.70;96.40;;;;;;5051678;28;20029;-75
2021/11/07 01:43:50;;;;;;;7.95;5.32;;;9.70;96.50;;;;;;5052941;28;20028;-74
2021/11/07 01:48:46;;;;;;;6.97;5.72;;;9.70;96.50;;;;;;5052740;28;20500;-75
2021/11/07 01:51:13;;;;;;;7.60;5.55;;;9.70;96.60;;;;;;5051249;28;20021;-75
2021/11/07 01:53:39;;;;;;;7.85;6.15;;;9.70;96.60;;;;;;5052927;28;20428;-75
2021/11/07 01:56:08;;;;;;;10.13;5.70;;;9.70;96.60;;;;;;5031370;28;20025;-75
2021/11/07 01:58:35;;;;;;;10.00;5.43;;;9.70;96.70;;;;;;5033181;28;20057;-74
2021/11/07 02:01:01;;;;;;;7.32;5.15;;;9.70;96.60;;;;;;5051654;28;20040;-74
2021/11/07 02:03:27;;;;;;;10.07;5.63;;;9.70;96.70;;;;;;5051452;28;20025;-75
2021/11/07 02:05:53;;;;;;;10.75;5.90;;;9.70;96.70;;;;;;5050990;28;20113;-75
2021/11/07 02:08:20;;;;;;;6.60;5.28;;;9.70;96.80;;;;;;5052108;28;20025;-76
2021/11/07 02:10:47;;;;;;;7.15;5.00;;;9.70;96.80;;;;;;5050215;28;20033;-74
2021/11/07 02:13:12;;;;;;;9.60;5.65;;;9.70;96.80;;;;;;5052587;28;20071;-75
2021/11/07 02:15:38;;;;;;;8.75;5.60;;;9.70;96.80;;;;;;5051814;28;20489;-74
2021/11/07 02:18:06;;;;;;;10.10;5.25;;;9.70;96.90;;;;;;5052137;28;20021;-75
2021/11/07 02:20:38;;;;;;;6.03;4.95;;;9.70;96.90;;;;;;5050460;28;20562;-75
2021/11/07 02:23:12;;;;;;;6.32;5.05;;;9.70;96.90;;;;;;5052331;28;20389;-75
2021/11/07 02:25:40;;;;;;;7.18;5.05;;;9.70;96.90;;;;;;5039062;28;20088;-75
2021/11/07 02:28:08;;;;;;;6.47;5.40;;;9.70;96.90;;;;;;5032495;28;20032;-75
2021/11/07 02:30:36;;;;;;;7.68;5.05;;;9.60;97.20;;;;;;5048577;28;20053;-75
2021/11/07 02:33:04;;;;;;;7.88;5.68;;;9.70;97.00;;;;;;5051895;28;20549;-74
2021/11/07 02:35:31;;;;;;;7.82;6.15;;;9.70;97.00;;;;;;5052122;28;20056;-75
2021/11/07 02:37:58;;;;;;;12.48;6.03;;;9.70;97.00;;;;;;5050882;28;20017;-75
2021/11/07 02:40:25;;;;;;;7.32;5.57;;;9.70;97.10;;;;;;5042875;28;20021;-75
2021/11/07 02:42:51;;;;;;;7.35;5.80;;;9.70;97.10;;;;;;5050868;28;20033;-75
2021/11/07 02:45:19;;;;;;;6.68;5.03;;;9.70;97.10;;;;;;5031076;28;20036;-75
2021/11/07 02:47:47;;;;;;;8.43;6.60;;;9.70;97.10;;;;;;5043644;28;20124;-75
2021/11/07 02:50:15;;;;;;;7.25;5.90;;;9.70;97.10;;;;;;5052230;28;20025;-75
2021/11/07 02:52:41;;;;;;;10.07;6.75;;;9.70;97.10;;;;;;5050736;28;20025;-75
2021/11/07 02:55:09;;;;;;;11.27;6.13;;;9.70;97.10;;;;;;5050733;28;20082;-75
2021/11/07 02:57:35;;;;;;;9.45;6.65;;;9.80;97.20;;;;;;5052179;28;20116;-75
2021/11/07 03:00:04;;;;;;;9.68;6.43;;;9.70;97.20;;;;;;5051813;28;20052;-75
2021/11/07 03:02:30;;;;;;;10.82;6.38;;;9.80;97.20;;;;;;5032467;28;20030;-75
2021/11/07 03:04:58;;;;;;;8.80;6.60;;;9.80;97.20;;;;;;5053972;28;20037;-75
2021/11/07 03:07:24;;;;;;;9.82;7.47;;;9.70;97.20;;;;;;5036269;28;20025;-75
2021/11/07 03:09:50;;;;;;;11.55;6.22;;;9.80;97.20;;;;;;5053487;28;20032;-75
2021/11/07 03:12:16;;;;;;;13.48;7.22;;;9.80;97.20;;;;;;5054841;28;20370;-75
2021/11/07 03:14:46;;;;;;;8.98;7.10;;;9.80;97.20;;;;;;5054615;28;20091;-75
2021/11/07 03:17:13;;;;;;;11.43;7.47;;;9.80;97.20;;;;;;5055959;28;20047;-75
2021/11/07 03:19:40;;;;;;;10.23;7.53;;;9.80;97.20;;;;;;5054290;28;20028;-76
2021/11/07 03:22:12;;;;;;;10.60;7.50;;;9.80;97.20;;;;;;5055873;28;20036;-75
2021/11/07 03:24:40;;;;;;;10.35;7.55;;;9.80;97.20;;;;;;5054390;28;20107;-75
2021/11/07 03:27:14;;;;;;;13.32;7.32;;;9.80;97.20;;;;;;5054506;28;20082;-75
2021/11/07 03:29:43;;;;;;;11.68;7.85;;;9.80;97.20;;;;;;5053955;28;20098;-75
2021/11/07 03:32:14;;;;;;;;;;;9.80;97.50;;;;;;5056253;28;20021;-75
2021/11/07 03:34:46;;;;;;;11.00;7.47;;;9.80;97.20;;;;;;5043559;28;19964;-75
2021/11/07 03:37:13;;;;;;;10.32;7.35;;;9.80;97.20;;;;;;5049948;28;20474;-75
2021/11/07 03:39:39;;;;;;;8.60;7.00;;;9.90;97.30;;;;;;5054209;28;20044;-76
2021/11/07 03:42:10;;;;;;;11.95;8.32;;;9.80;97.20;;;;;;5055327;28;20508;-75
2021/11/07 03:44:38;;;;;;;12.60;8.25;;;9.90;97.30;;;;;;5055436;28;20172;-75
2021/11/07 03:47:04;;;;;;;10.20;8.07;;;9.90;97.30;;;;;;5037488;28;20032;-75
2021/11/07 03:49:30;;;;;;;9.80;7.45;;;9.90;97.30;;;;;;5054918;28;20067;-75
2021/11/07 03:51:56;;;;;;;9.80;7.70;;;9.90;97.30;;;;;;5054830;28;20728;-75
2021/11/07 03:54:22;;;;;;;13.65;8.57;;;9.90;97.60;;;;;;5052154;28;20056;-75
2021/11/07 03:56:48;;;;;;;9.93;8.52;;;9.90;97.30;;;;;;5052964;28;20036;-75
2021/11/07 03:59:14;;;;;;;12.40;9.60;;;9.90;97.30;;;;;;5050694;28;20026;-75
2021/11/07 04:01:41;;;;;;;10.50;8.95;;;10.00;97.40;;;;;;5052649;28;20052;-75
2021/11/07 04:04:08;;;;;;;16.40;9.73;;;9.90;97.30;;;;;;5033593;28;20111;-75
2021/11/07 04:06:34;;;;;;;15.32;9.80;;;10.00;97.40;;;;;;5051118;28;20122;-74
2021/11/07 04:09:00;;;;;;;15.35;9.65;;;9.90;97.40;;;;;;5054091;28;20063;-75
2021/11/07 04:11:27;;;;;;;18.00;10.10;;;10.00;97.40;;;;;;5054483;28;20021;-75
2021/11/07 04:13:53;;;;;;;15.68;9.57;;;9.90;97.40;;;;;;5053672;28;20033;-75
2021/11/07 04:16:19;;;;;;;12.93;10.32;;;10.00;97.40;;;;;;5047235;28;20025;-74
2021/11/07 04:18:45;;;;;;;17.02;11.27;;;10.00;97.50;;;;;;5043867;28;20038;-74
2021/11/07 04:21:11;;;;;;;11.70;10.10;;;10.00;97.50;;;;;;5033140;28;20029;-75
2021/11/07 04:23:37;;;;;;;16.38;9.95;;;10.00;97.40;;;;;;5034758;28;20021;-75
2021/11/07 04:26:03;;;;;;;13.75;10.57;;;10.00;97.40;;;;;;5037568;28;20073;-75
2021/11/07 04:28:29;;;;;;;17.45;11.20;;;10.00;97.40;;;;;;5054149;28;20068;-75
2021/11/07 04:30:55;;;;;;;23.13;11.73;;;10.00;97.40;;;;;;5053971;28;20063;-75
2021/11/07 04:33:22;;;;;;;15.90;11.63;;;10.10;97.50;;;;;;5053699;28;20025;-76
2021/11/07 04:35:48;;;;;;;15.82;11.55;;;10.10;97.50;;;;;;5052596;28;20052;-75
2021/11/07 04:38:15;;;;;;;17.23;12.68;;;10.00;97.50;;;;;;5052611;28;20112;-75
2021/11/07 04:40:41;;;;;;;16.17;12.25;;;10.10;97.50;;;;;;5053722;28;20056;-75
2021/11/07 04:43:07;;;;;;;15.25;11.65;;;10.10;97.50;;;;;;5052642;28;20256;-75
2021/11/07 04:45:33;;;;;;;17.38;12.60;;;10.10;97.50;;;;;;5050876;28;20031;-75
2021/11/07 04:47:59;;;;;;;15.63;11.43;;;10.10;97.50;;;;;;5052457;28;20029;-75
2021/11/07 04:50:24;;;;;;;14.48;11.70;;;10.10;97.50;;;;;;5052661;28;20032;-74
2021/11/07 04:52:50;;;;;;;15.13;11.50;;;10.10;97.50;;;;;;5052704;28;20025;-75
2021/11/07 04:55:17;;;;;;;15.68;11.25;;;10.10;97.50;;;;;;5052561;28;20082;-74
2021/11/07 04:57:43;;;;;;;16.73;11.25;;;10.20;97.50;;;;;;5052883;28;20044;-75
2021/11/07 05:00:19;;;;;;;14.30;10.50;;;10.10;97.50;;;;;;5053588;28;20041;-75
2021/11/07 05:02:47;;;;;;;16.67;10.82;;;10.20;97.50;;;;;;5051814;28;20043;-74
2021/11/07 05:05:14;;;;;;;18.87;11.63;;;10.20;97.50;;;;;;5052260;28;20474;-75
2021/11/07 05:07:40;;;;;;;18.85;12.88;;;10.20;97.50;;;;;;5051982;28;20028;-74
2021/11/07 05:10:06;;;;;;;13.73;11.10;;;10.20;97.50;;;;;;5052036;28;20037;-75
2021/11/07 05:12:32;;;;;;;17.13;12.25;;;10.20;97.50;;;;;;5033325;28;20116;-75
2021/11/07 05:14:58;;;;;;;14.45;11.20;;;10.20;97.50;;;;;;5051760;28;20214;-74
2021/11/07 05:17:24;;;;;;;14.02;10.68;;;10.20;97.50;;;;;;5034745;28;20798;-75
2021/11/07 05:19:50;;;;;;;19.67;13.00;;;10.20;97.50;;;;;;5051242;28;20103;-75
2021/11/07 05:22:16;;;;;;;14.00;11.70;;;10.30;97.50;;;;;;5034303;28;20108;-74
2021/11/07 05:24:41;;;;;;;16.40;12.32;;;10.20;97.50;;;;;;5050888;28;20033;-74
2021/11/07 05:27:07;;;;;;;18.80;13.65;;;10.30;97.50;;;;;;5049745;28;20040;-75
2021/11/07 05:29:33;;;;;;;19.65;12.95;;;10.30;97.50;;;;;;5033488;28;20061;-75
2021/11/07 05:32:00;;;;;;;18.02;12.27;;;10.30;97.50;;;;;;5050817;28;20043;-75
2021/11/07 05:34:26;;;;;;;17.95;13.27;;;10.30;97.60;;;;;;5051233;28;20017;-75
2021/11/07 05:36:52;;;;;;;19.70;14.05;;;10.30;97.60;;;;;;5049466;28;20108;-74
2021/11/07 05:39:19;;;;;;;30.08;14.30;;;10.30;97.70;;;;;;5050079;28;20108;-75
2021/11/07 05:41:45;;;;;;;22.15;14.27;;;10.30;97.70;;;;;;5032815;28;20086;-75
2021/11/07 05:44:11;;;;;;;15.88;12.75;;;10.30;97.70;;;;;;5051040;28;20032;-75
2021/11/07 05:46:37;;;;;;;21.08;14.35;;;10.30;97.70;;;;;;5032436;28;20120;-75
2021/11/07 05:49:03;;;;;;;20.35;14.15;;;10.30;97.80;;;;;;5049911;28;20108;-75
2021/11/07 05:51:29;;;;;;;17.90;13.50;;;10.40;97.80;;;;;;5050655;28;20075;-75
2021/11/07 05:53:55;;;;;;;23.48;15.27;;;10.40;97.80;;;;;;5050742;28;20027;-75
2021/11/07 05:56:21;;;;;;;25.23;15.07;;;10.40;97.90;;;;;;5049172;28;20020;-75
2021/11/07 05:58:46;;;;;;;21.90;14.80;;;10.40;97.90;;;;;;5049262;28;20037;-75
2021/11/07 06:01:12;;;;;;;24.58;14.68;;;10.40;97.90;;;;;;5051195;28;20037;-75
2021/11/07 06:03:38;;;;;;;22.17;14.20;;;10.40;97.90;;;;;;5051577;28;20497;-75
2021/11/07 06:06:03;;;;;;;25.02;15.10;;;10.40;97.90;;;;;;5033340;28;20371;-75
2021/11/07 06:08:29;;;;;;;15.20;12.82;;;10.40;97.90;;;;;;5051748;28;20040;-75
2021/11/07 06:10:55;;;;;;;24.42;14.13;;;10.40;97.90;;;;;;5033757;28;20060;-75
2021/11/07 06:13:21;;;;;;;22.58;13.77;;;10.40;97.90;;;;;;5051009;28;20532;-75
2021/11/07 06:15:46;;;;;;;18.70;14.40;;;10.40;97.90;;;;;;5048369;28;20025;-75
2021/11/07 06:18:12;;;;;;;22.95;16.00;;;10.40;97.90;;;;;;5050349;28;20020;-75
2021/11/07 06:20:38;;;;;;;21.52;15.48;;;10.40;98.00;;;;;;5049563;28;20056;-75
2021/11/07 06:23:05;;;;;;;21.60;14.95;;;10.40;98.00;;;;;;5050611;28;20025;-75
2021/11/07 06:25:32;;;;;;;24.50;17.58;;;10.40;98.30;;;;;;5050523;28;20060;-75
2021/11/07 06:27:59;;;;;;;25.90;16.45;;;10.40;98.00;;;;;;5050984;28;20033;-75
2021/11/07 06:30:25;;;;;;;22.92;17.20;;;10.50;98.00;;;;;;5052007;28;20393;-75
2021/11/07 06:32:50;;;;;;;24.95;18.60;;;10.50;98.00;;;;;;5050766;28;20029;-75
2021/11/07 06:35:16;;;;;;;30.85;17.50;;;10.50;98.00;;;;;;5051245;28;20028;-74
2021/11/07 06:37:43;;;;;;;26.73;18.05;;;10.50;98.00;;;;;;5050859;28;20035;-75
2021/11/07 06:40:11;;;;;;;35.97;19.05;;;10.50;98.00;;;;;;5054195;28;20465;-74
2021/11/07 06:42:38;;;;;;;22.58;17.33;;;10.50;98.00;;;;;;5055532;28;20033;-75
2021/11/07 06:45:04;;;;;;;25.45;17.42;;;10.50;98.00;;;;;;5054525;28;20063;-75
2021/11/07 06:47:30;;;;;;;30.52;16.30;;;10.60;98.10;;;;;;5055078;28;20424;-75
2021/11/07 06:49:56;;;;;;;29.17;17.90;;;10.50;98.00;;;;;;5055879;28;20041;-75
2021/11/07 06:52:22;;;;;;;25.83;16.95;;;10.50;98.00;;;;;;5037756;28;20746;-75
2021/11/07 06:54:49;;;;;;;25.30;16.58;;;10.60;98.30;;;;;;5054676;28;20031;-75
2021/11/07 06:57:15;;;;;;;19.38;15.18;;;10.60;98.00;;;;;;5054850;28;20397;-75
2021/11/07 06:59:41;;;;;;;26.33;16.05;;;10.50;98.00;;;;;;5053617;28;20032;-75
2021/11/07 07:02:07;;;;;;;26.92;15.63;;;10.60;98.20;;;;;;5053954;28;20094;-75
2021/11/07 07:04:32;;;;;;;23.77;14.35;;;10.60;98.00;;;;;;5053794;28;20029;-75
2021/11/07 07:06:58;;;;;;;26.98;15.15;;;10.50;98.00;;;;;;5051902;28;20435;-74
2021/11/07 07:09:29;;;;;;;27.83;13.85;;;10.60;98.00;;;;;;5051412;28;20562;-74
2021/11/07 07:12:06;;;;;;;26.95;15.43;;;10.60;98.00;;;;;;5054144;28;20359;-74
2021/11/07 07:14:38;;;;;;;23.70;12.43;;;10.50;97.90;;;;;;5035421;28;20026;-74
2021/11/07 07:35:10;;;;;;;19.17;10.55;;;10.50;97.80;;;;;;5055188;28;20727;-75
2021/11/07 07:37:36;;;;;;;23.37;10.30;;;10.50;97.70;;;;;;5037452;28;20390;-74
2021/11/07 07:40:03;;;;;;;22.25;10.10;;;10.50;97.70;;;;;;5053480;28;20267;-75
2021/11/07 07:42:30;;;;;;;21.90;9.80;;;10.40;97.70;;;;;;5053916;28;20115;-75
2021/11/07 07:44:56;;;;;;;21.15;9.48;;;10.50;98.00;;;;;;5035627;28;20029;-75
2021/11/07 07:47:21;;;;;;;24.02;8.90;;;10.40;97.70;;;;;;5053262;28;20025;-75
2021/11/07 07:49:49;;;;;;;23.52;9.05;;;10.40;97.70;;;;;;5052727;28;20521;-75
2021/11/07 07:52:20;;;;;;;21.20;8.43;;;10.50;97.70;;;;;;5052601;28;20481;-75
2021/11/07 07:54:46;;;;;;;20.60;8.52;;;10.50;97.60;;;;;;5054623;28;20100;-75
2021/11/07 07:57:11;;;;;;;18.92;9.10;;;10.50;97.50;;;;;;5055030;28;20025;-75
2021/11/07 07:59:37;;;;;;;20.58;8.20;;;10.50;97.80;;;;;;5036998;28;20045;-75
2021/11/07 08:02:03;;;;;;;18.30;6.57;;;10.60;97.50;;;;;;5053729;28;20371;-75
2021/11/07 08:04:28;;;;;;;18.52;6.32;;;10.60;97.40;;;;;;5054179;28;20033;-78
2021/11/07 08:06:55;;;;;;;26.10;6.82;;;10.60;97.20;;;;;;5053860;28;20112;-77
2021/11/07 08:09:21;;;;;;;28.15;6.72;;;10.70;97.10;;;;;;5054890;28;20029;-79
2021/11/07 08:11:46;;;;;;;28.63;5.90;;;10.70;96.90;;;;;;5037491;28;20128;-79
2021/11/07 08:14:12;;;;;;;22.23;5.43;;;10.70;96.70;;;;;;5053963;28;20029;-79
2021/11/07 08:16:38;;;;;;;20.55;5.03;;;10.70;96.60;;;;;;5054033;28;20074;-79
2021/11/07 08:19:05;;;;;;;22.67;5.25;;;10.80;96.40;;;;;;5055057;28;20017;-79
2021/11/07 08:21:37;;;;;;;25.98;5.22;;;10.80;96.20;;;;;;5053977;28;20105;-80
2021/11/07 08:24:08;;;;;;;23.98;4.85;;;10.90;96.10;;;;;;5053730;28;20079;-80
2021/11/07 08:26:39;;;;;;;17.98;4.53;;;10.90;95.70;;;;;;5054915;28;20036;-80
2021/11/07 08:29:06;;;;;;;25.67;4.85;;;11.00;95.50;;;;;;5054749;28;20080;-80
2021/11/07 08:31:32;;;;;;;18.50;4.70;;;11.00;95.20;;;;;;5037226;28;20041;-80
2021/11/07 08:33:58;;;;;;;20.10;4.55;;;11.10;95.00;;;;;;5037077;28;20373;-80
2021/11/07 08:36:35;;;;;;;29.88;5.13;;;11.20;94.80;;;;;;5053726;28;20021;-80
2021/11/07 08:39:03;;;;;;;24.48;5.07;;;11.20;94.10;;;;;;5054295;28;20059;-80
2021/11/07 08:41:30;;;;;;;27.03;4.80;;;11.20;94.40;;;;;;5053279;28;20029;-81
2021/11/07 09:05:46;;;;;;;20.65;3.20;;;11.20;93.60;;;;;;5050855;28;20080;-79
2021/11/07 09:08:16;;;;;;;22.40;3.40;;;11.20;93.60;;;;;;5051426;28;20071;-81
2021/11/07 09:10:44;;;;;;;19.52;3.45;;;11.20;93.40;;;;;;5049551;28;20044;-79
2021/11/07 09:13:13;;;;;;;18.27;3.22;;;11.20;93.30;;;;;;5053788;28;20059;-80
2021/11/07 09:15:41;;;;;;;23.70;3.65;;;11.30;93.30;;;;;;5051659;28;20049;-79
2021/11/07 09:18:08;;;;;;;22.88;3.83;;;11.30;93.30;;;;;;5051816;28;20033;-80
2021/11/07 09:21:06;;;;;;;24.38;3.95;;;11.30;93.10;;;;;;5051530;28;20045;-79
2021/11/07 09:23:34;;;;;;;22.05;3.85;;;11.30;93.00;;;;;;5053156;28;20025;-80
2021/11/07 09:26:13;;;;;;;23.40;3.42;;;11.40;92.80;;;;;;5048403;28;20025;-79
2021/11/07 09:28:49;;;;;;;32.65;4.47;;;11.40;92.60;;;;;;5031597;28;20080;-79
2021/11/07 09:32:08;;;;;;;22.52;4.13;;;11.50;92.20;;;;;;5044882;28;20516;-79
2021/11/07 09:34:16;;;;;;;19.77;3.58;;;11.50;92.10;;;;;;5053032;28;20033;-79
2021/11/07 09:36:48;;;;;;;19.05;3.65;;;11.60;91.90;;;;;;5052781;28;20108;-79
2021/11/07 09:44:19;;;;;;;16.80;3.05;;;11.70;91.60;;;;;;5051323;28;20029;-78
2021/11/07 09:46:52;;;;;;;20.45;3.30;;;11.80;91.40;;;;;;5051632;28;20017;-78
2021/11/07 09:49:23;;;;;;;22.75;3.50;;;11.90;91.20;;;;;;5053636;28;20028;-77
2021/11/07 09:51:59;;;;;;;17.30;3.25;;;11.90;90.60;;;;;;5053454;28;20021;-77
2021/11/07 09:54:28;;;;;;;18.75;3.33;;;12.00;90.40;;;;;;5052250;28;20024;-77
2021/11/07 09:56:55;;;;;;;22.23;3.60;;;12.10;90.20;;;;;;5053157;28;20458;-77
2021/11/07 09:59:24;;;;;;;18.35;2.90;;;12.30;89.80;;;;;;5052972;28;20029;-77
2021/11/07 10:01:51;;;;;;;32.33;4.05;;;12.40;89.50;;;;;;5052182;28;20112;-77
2021/11/07 10:04:17;;;;;;;13.45;3.03;;;12.50;87.50;;;;;;5053168;28;20037;-77
2021/11/07 10:06:50;;;;;;;23.98;3.55;;;12.50;87.70;;;;;;5052921;28;20081;-77
2021/11/07 10:09:37;;;;;;;22.38;3.65;;;12.60;87.70;;;;;;5034634;28;20456;-77
2021/11/07 10:12:18;;;;;;;17.77;3.53;;;12.50;87.30;;;;;;5050073;28;20125;-77
2021/11/07 10:14:46;;;;;;;19.60;3.10;;;12.50;86.50;;;;;;5050482;28;20025;-80
2021/11/07 10:17:36;;;;;;;17.83;2.90;;;12.40;86.70;;;;;;5051403;28;20112;-80
2021/11/07 10:20:21;;;;;;;20.58;3.00;;;12.40;87.00;;;;;;5053199;28;20167;-80
2021/11/07 10:22:53;;;;;;;17.65;3.20;;;12.40;86.80;;;;;;5051133;28;20024;-79
2021/11/07 10:25:23;;;;;;;24.63;3.17;;;12.50;87.00;;;;;;5052284;28;20044;-77
2021/11/07 10:27:53;;;;;;;24.75;3.80;;;12.40;86.90;;;;;;5052538;28;20040;-79
2021/11/07 10:30:23;;;;;;;17.40;2.95;;;12.40;86.40;;;;;;5052226;28;20127;-80
2021/11/07 10:33:38;;;;;;;19.63;3.30;;;12.40;86.80;;;;;;5052321;28;20021;-81
2021/11/07 10:36:12;;;;;;;22.15;3.03;;;12.30;86.80;;;;;;5048219;28;20037;-81
2021/11/07 10:41:32;;;;;;;21.33;3.15;;;12.20;87.50;;;;;;5052304;28;20025;-80
2021/11/07 10:52:42;;;;;;;23.42;3.25;;;12.30;87.00;;;;;;5042070;28;20094;-80
2021/11/07 10:55:21;;;;;;;18.35;2.75;;;12.20;87.50;;;;;;5051483;28;20032;-80
2021/11/07 10:57:50;;;;;;;18.48;3.15;;;12.20;87.80;;;;;;5051596;28;20482;-80
2021/11/07 11:00:21;;;;;;;21.73;3.38;;;12.20;87.10;;;;;;5051773;28;20025;-79
2021/11/07 11:02:56;;;;;;;23.70;3.03;;;12.30;86.90;;;;;;5052052;28;20035;-80
2021/11/07 11:05:26;;;;;;;20.52;3.22;;;12.30;86.30;;;;;;5045602;28;20104;-82
2021/11/07 11:07:59;;;;;;;16.00;3.17;;;12.30;86.40;;;;;;5055297;28;20029;-80
2021/11/07 11:10:39;;;;;;;20.13;3.08;;;12.30;86.40;;;;;;5046269;28;20127;-81
2021/11/07 11:13:23;;;;;;;20.10;3.20;;;12.30;85.80;;;;;;5071231;28;20032;-79
2021/11/07 11:26:52;;;;;;;29.10;3.50;;;12.20;85.50;;;;;;5054559;28;20036;-81
2021/11/07 11:34:35;;;;;;;22.40;2.80;;;12.10;85.90;;;;;;5055241;28;20040;-82
2021/11/07 11:37:17;;;;;;;20.98;3.72;;;12.10;85.80;;;;;;5054743;28;20104;-80
2021/11/07 11:45:26;;;;;;;26.30;3.70;;;12.20;86.70;;;;;;5025583;28;20018;-79
2021/11/07 11:53:19;;;;;;;20.83;3.45;;;12.40;86.40;;;;;;5050331;28;20025;-78
2021/11/07 11:55:50;;;;;;;19.42;3.10;;;12.50;86.10;;;;;;5073879;28;20457;-78
2021/11/07 11:58:46;;;;;;;22.15;3.63;;;12.50;85.80;;;;;;5075364;28;20423;-78
2021/11/07 12:01:19;;;;;;;23.08;3.10;;;12.50;85.90;;;;;;5061087;28;20052;-78
2021/11/07 12:06:32;;;;;;;20.38;3.78;;;12.60;84.00;;;;;;5035412;28;20080;-79
2021/11/07 12:09:17;;;;;;;18.10;2.45;;;12.70;83.80;;;;;;5042070;28;20028;-78
2021/11/07 12:11:46;;;;;;;18.98;3.10;;;12.70;83.60;;;;;;5055202;28;20363;-79
2021/11/07 12:14:19;;;;;;;16.52;3.03;;;12.80;83.50;;;;;;5054093;28;20062;-78
2021/11/07 12:17:05;;;;;;;20.85;3.13;;;12.80;83.60;;;;;;5053454;28;20036;-78
2021/11/07 12:19:43;;;;;;;21.13;2.80;;;12.90;81.90;;;;;;5036553;28;20049;-79
2021/11/07 12:22:16;;;;;;;21.13;3.55;;;13.00;81.10;;;;;;5049993;28;20037;-79
2021/11/07 12:24:47;;;;;;;20.33;3.15;;;13.10;80.30;;;;;;5053492;28;20580;-79
2021/11/07 12:27:30;;;;;;;22.42;3.47;;;13.10;79.50;;;;;;5033884;28;20478;-79
2021/11/07 12:29:59;;;;;;;23.83;3.08;;;12.90;78.90;;;;;;5033981;28;20053;-75
2021/11/07 12:32:34;;;;;;;22.63;3.20;;;12.80;79.20;;;;;;5036438;28;20049;-75
2021/11/07 12:35:24;;;;;;;20.33;3.08;;;12.70;80.70;;;;;;5053700;28;20534;-75
2021/11/07 12:40:58;;;;;;;14.48;2.72;;;12.60;81.70;;;;;;5044229;28;20044;-75
2021/11/07 12:43:33;;;;;;;26.45;3.67;;;12.60;82.40;;;;;;5042385;28;20508;-75
2021/11/07 12:49:02;;;;;;;20.02;3.42;;;12.60;81.60;;;;;;5052953;28;20112;-76
2021/11/07 12:51:33;;;;;;;17.63;2.90;;;12.60;81.30;;;;;;5052450;28;20071;-75
2021/11/07 12:54:03;;;;;;;18.50;3.40;;;12.60;81.50;;;;;;5044243;28;20031;-75
2021/11/07 12:56:39;;;;;;;16.50;3.13;;;12.60;80.80;;;;;;5051954;28;20029;-75
2021/11/07 12:59:08;;;;;;;25.88;3.20;;;12.60;80.50;;;;;;5051235;28;20029;-75
2021/11/07 13:02:11;;;;;;;14.20;2.40;;;12.50;79.90;;;;;;5052280;28;20029;-75
2021/11/07 13:05:16;;;;;;;13.88;2.55;;;12.50;80.20;;;;;;5053046;28;20037;-75
2021/11/07 13:07:59;;;;;;;20.15;2.80;;;12.50;79.80;;;;;;5050380;28;20060;-75
2021/11/07 13:25:52;;;;;;;21.55;4.40;;;12.30;80.20;;;;;;5050382;28;20405;-75
2021/11/07 13:28:32;;;;;;;25.27;3.58;;;12.20;80.90;;;;;;5051016;28;20082;-75
2021/11/07 13:31:25;;;;;;;23.00;3.42;;;12.10;81.20;;;;;;5051756;28;20090;-75
2021/11/07 13:33:50;;;;;;;19.40;2.97;;;12.00;81.20;;;;;;5050758;28;20511;-75
2021/11/07 13:36:20;;;;;;;25.80;3.42;;;11.90;81.50;;;;;;5051224;28;20065;-75
2021/11/07 13:38:51;;;;;;;22.60;3.33;;;12.00;81.40;;;;;;5051831;28;20104;-75
2021/11/07 13:41:22;;;;;;;22.02;3.88;;;12.40;80.00;;;;;;5051592;28;20086;-75
2021/11/07 13:43:57;;;;;;;19.15;3.00;;;12.60;78.50;;;;;;5049857;28;20029;-75
2021/11/07 13:46:23;;;;;;;23.70;3.75;;;12.80;78.30;;;;;;5051911;28;20086;-75
2021/11/07 13:49:02;;;;;;;17.08;2.83;;;12.80;78.90;;;;;;5049827;28;20025;-75
2021/11/07 13:51:32;;;;;;;23.33;4.07;;;12.60;79.70;;;;;;5051138;28;20029;-75
2021/11/07 13:54:00;;;;;;;20.02;3.28;;;12.40;80.30;;;;;;5051297;28;20033;-76
2021/11/07 13:56:27;;;;;;;23.57;3.33;;;12.20;81.40;;;;;;5051449;28;20047;-75
2021/11/07 13:58:53;;;;;;;20.50;3.35;;;12.10;82.20;;;;;;5050689;28;20021;-75
2021/11/07 14:01:19;;;;;;;24.10;3.42;;;11.90;83.30;;;;;;5051385;28;20118;-75
2021/11/07 14:03:52;;;;;;;27.08;3.63;;;11.80;82.90;;;;;;5051736;28;20028;-75
2021/11/07 14:06:25;;;;;;;20.23;3.20;;;11.80;83.20;;;;;;5051714;28;20032;-75
2021/11/07 14:08:59;;;;;;;26.10;3.35;;;11.90;83.20;;;;;;5048572;28;20039;-75
2021/11/07 14:11:27;;;;;;;23.67;3.58;;;11.90;82.90;;;;;;5028067;28;20128;-75
2021/11/07 14:13:55;;;;;;;18.02;3.45;;;11.90;82.90;;;;;;5050763;28;20032;-80
2021/11/07 14:16:51;;;;;;;22.27;3.53;;;11.80;83.00;;;;;;5051268;28;20021;-79
2021/11/07 14:19:17;;;;;;;22.60;3.65;;;11.80;83.30;;;;;;5050674;28;20087;-80
2021/11/07 14:21:49;;;;;;;21.77;3.47;;;11.70;82.90;;;;;;5051657;28;20421;-79
2021/11/07 14:24:23;;;;;;;22.00;3.60;;;11.70;82.60;;;;;;5052896;28;20025;-79
2021/11/07 14:27:18;;;;;;;23.73;4.05;;;11.70;82.80;;;;;;5051532;28;20124;-79
2021/11/07 14:29:55;;;;;;;29.98;3.47;;;11.60;83.20;;;;;;5051577;28;20087;-79
2021/11/07 14:32:28;;;;;;;23.00;3.95;;;11.60;82.90;;;;;;5052868;28;20490;-79
2021/11/07 14:40:14;;;;;;;22.10;3.25;;;11.50;82.80;;;;;;5053184;28;20041;-79
2021/11/07 14:43:31;;;;;;;23.27;3.23;;;11.50;83.20;;;;;;5052724;28;20075;-80
2021/11/07 14:54:04;;;;;;;19.95;3.30;;;11.30;83.60;;;;;;5039176;28;20061;-80
2021/11/07 14:56:47;;;;;;;22.73;3.42;;;11.30;84.00;;;;;;5051381;28;20064;-80
2021/11/07 15:02:55;;;;;;;25.15;3.75;;;11.20;84.10;;;;;;5050016;28;20036;-79
2021/11/07 15:08:06;;;;;;;;;;;11.10;84.70;;;;;;5035244;28;20037;-79
2021/11/07 15:10:59;;;;;;;23.38;4.13;;;11.10;84.90;;;;;;5037093;28;19909;-80
2021/11/07 15:17:04;;;;;;;27.02;3.58;;;11.00;84.80;;;;;;5053591;28;20489;-79
2021/11/07 15:24:42;;;;;;;27.98;3.40;;;11.00;85.10;;;;;;5023500;28;20029;-80
2021/11/07 15:27:20;;;;;;;23.25;3.67;;;11.10;85.10;;;;;;5050989;28;20033;-80
2021/11/07 15:29:59;;;;;;;25.63;4.38;;;11.00;85.20;;;;;;5053199;28;20071;-79
2021/11/07 15:32:30;;;;;;;25.70;3.33;;;11.00;85.40;;;;;;5033889;28;20033;-78
2021/11/07 15:34:56;;;;;;;26.70;3.88;;;11.00;85.50;;;;;;5054738;28;20029;-78
2021/11/07 15:37:31;;;;;;;22.25;3.70;;;10.90;85.80;;;;;;5052491;28;20032;-79
2021/11/07 15:40:00;;;;;;;27.65;3.78;;;10.80;86.20;;;;;;5052584;28;20033;-79
2021/11/07 15:42:31;;;;;;;22.05;3.47;;;10.70;86.60;;;;;;5054292;28;20512;-80
2021/11/07 15:45:06;;;;;;;28.73;4.13;;;10.70;86.90;;;;;;5054081;28;20040;-80
2021/11/07 15:53:05;;;;;;;21.45;3.60;;;10.60;87.20;;;;;;5054865;28;20115;-80
2021/11/07 15:55:36;;;;;;;19.30;4.28;;;10.50;87.40;;;;;;5054571;28;20421;-80
2021/11/07 16:18:45;;;;;;;27.73;3.90;;;10.40;88.20;;;;;;5054869;28;20809;-79